Time,TemperatureF,DewpointF,PressureIn,WindDirection,WindDirectionDegrees,WindSpeedMPH,WindSpeedGustMPH,Humidity,HourlyPrecipIn,Conditions,Clouds,dailyrainin,SolarRadiationWatts/m^2,SoftwareType,DateUTC
2013-10-20 00:01:00,48.6,45.5,29.70,SW,228,7.2,17.3,89,0.05,-RA,,0.00,0.0,WeatherDisplay:10.37,2013-10-20 04:01:00,
2013-10-20 00:02:00,48.6,45.2,29.70,SW,227,8.8,17.0,88,0.05,-RA,,0.00,0.0,WeatherDisplay:10.37,2013-10-20 04:02:00,
2013-10-20 00:03:00,48.3,44.9,29.70,WSW,242,14.0,20.0,88,0.05,-RA,,0.00,0.0,WeatherDisplay:10.37,2013-10-20 04:03:00,
2013-10-20 00:04:00,48.3,44.9,29.70,WSW,242,14.0,20.0,88,0.05,-RA,,0.00,0.0,WeatherDisplay:10.37,2013-10-20 04:04:00,
2013-10-20 00:09:00,47.7,44.0,29.72,WNW,288,5.2,26.5,87,0.05,-RA,,0.00,0.0,WeatherDisplay:10.37,2013-10-20 04:09:00,
2013-10-20 00:14:00,47.1,43.1,29.72,WSW,243,7.9,16.1,86,0.05,-RA,,0.00,0.0,WeatherDisplay:10.37,2013-10-20 04:14:00,
2013-10-20 00:19:00,46.8,42.8,29.72,WSW,242,8.4,21.0,86,0.03,-RA,,0.00,0.0,WeatherDisplay:10.37,2013-10-20 04:19:00,
2013-10-20 00:24:00,46.5,42.8,29.72,WSW,246,3.8,9.2,87,0.03,-RA,,0.00,0.0,WeatherDisplay:10.37,2013-10-20 04:24:00,
2013-10-20 00:29:00,46.1,42.4,29.72,WSW,254,0.8,11.5,87,0.02,-RA,,0.00,0.0,WeatherDisplay:10.37,2013-10-20 04:29:00,
2013-10-20 00:34:00,46.0,42.3,29.72,South,181,2.2,11.5,87,0.02,-RA,,0.00,0.0,WeatherDisplay:10.37,2013-10-20 04:34:00,
2013-10-20 00:39:00,45.8,42.2,29.72,SW,223,2.2,9.2,87,0.01,-RA,,0.00,0.0,WeatherDisplay:10.37,2013-10-20 04:39:00,
2013-10-20 00:44:00,45.7,42.3,29.73,WSW,252,3.0,5.0,88,0.00,-RA,,0.00,0.0,WeatherDisplay:10.37,2013-10-20 04:44:00,
2013-10-20 00:49:00,45.7,42.3,29.73,West,279,3.7,11.5,88,0.00,-RA,,0.00,0.0,WeatherDisplay:10.37,2013-10-20 04:49:00,
2013-10-20 00:54:00,45.4,42.1,29.73,SSW,206,2.1,5.0,88,0.00,-RA,,0.00,0.0,WeatherDisplay:10.37,2013-10-20 04:54:00,
2013-10-20 00:59:00,45.2,41.9,29.73,West,274,2.3,10.4,88,0.00,-RA,,0.00,0.0,WeatherDisplay:10.37,2013-10-20 04:59:00,
2013-10-20 01:04:00,45.2,41.9,29.73,WNW,283,1.8,6.0,88,0.00,OVC,,0.00,0.0,WeatherDisplay:10.37,2013-10-20 05:04:00,
2013-10-20 01:09:00,45.1,41.5,29.74,West,260,1.2,6.0,87,0.00,OVC,,0.00,0.0,WeatherDisplay:10.37,2013-10-20 05:09:00,
2013-10-20 01:14:00,44.9,41.3,29.74,SW,232,0.1,4.6,87,0.00,OVC,,0.00,0.0,WeatherDisplay:10.37,2013-10-20 05:14:00,
2013-10-20 01:19:00,44.8,41.2,29.74,SSW,207,4.2,12.0,87,0.00,OVC,,0.00,0.0,WeatherDisplay:10.37,2013-10-20 05:19:00,
2013-10-20 01:24:00,44.8,41.2,29.74,SW,222,3.0,13.0,87,0.00,OVC,,0.00,0.0,WeatherDisplay:10.37,2013-10-20 05:24:00,
2013-10-20 01:29:00,44.8,41.2,29.74,SSW,203,1.9,9.2,87,0.00,OVC,,0.00,0.0,WeatherDisplay:10.37,2013-10-20 05:29:00,
2013-10-20 01:34:00,44.6,40.7,29.74,SW,235,3.0,13.0,86,0.00,OVC,,0.00,0.0,WeatherDisplay:10.37,2013-10-20 05:34:00,
2013-10-20 01:39:00,44.6,40.7,29.74,West,272,1.5,9.0,86,0.00,OVC,,0.00,0.0,WeatherDisplay:10.37,2013-10-20 05:39:00,
2013-10-20 01:44:00,44.5,40.6,29.75,WSW,251,3.0,10.4,86,0.00,OVC,,0.00,0.0,WeatherDisplay:10.37,2013-10-20 05:44:00,
2013-10-20 01:49:00,44.5,40.6,29.75,NW,312,1.8,11.5,86,0.00,OVC,,0.00,0.0,WeatherDisplay:10.37,2013-10-20 05:49:00,
2013-10-20 01:54:00,44.3,40.4,29.75,SSW,205,1.4,6.0,86,0.00,OVC,,0.00,0.0,WeatherDisplay:10.37,2013-10-20 05:54:00,
2013-10-20 01:59:00,44.3,40.4,29.75,SSW,196,0.6,5.0,86,0.00,OVC,,0.00,0.0,WeatherDisplay:10.37,2013-10-20 05:59:00,
2013-10-20 02:04:00,44.3,40.4,29.75,SW,233,4.4,17.3,86,0.00,SCT,,0.00,0.0,WeatherDisplay:10.37,2013-10-20 06:04:00,
2013-10-20 02:09:00,44.2,40.6,29.76,WNW,300,1.3,6.9,87,0.00,SCT,,0.00,0.0,WeatherDisplay:10.37,2013-10-20 06:09:00,
2013-10-20 02:14:00,44.2,40.3,29.76,SSW,205,5.5,12.0,86,0.00,SCT,,0.00,0.0,WeatherDisplay:10.37,2013-10-20 06:14:00,
2013-10-20 02:19:00,44.2,40.3,29.76,SSW,208,4.0,13.0,86,0.00,SCT,,0.00,0.0,WeatherDisplay:10.37,2013-10-20 06:19:00,
2013-10-20 02:24:00,44.2,40.3,29.77,WSW,252,3.0,7.0,86,0.00,SCT,,0.00,0.0,WeatherDisplay:10.37,2013-10-20 06:24:00,
2013-10-20 02:29:00,44.2,40.3,29.77,WSW,255,2.4,9.2,86,0.00,SCT,,0.00,0.0,WeatherDisplay:10.37,2013-10-20 06:29:00,
2013-10-20 02:35:00,44.2,40.3,29.77,WSW,254,7.5,16.0,86,0.00,SCT,,0.00,0.0,WeatherDisplay:10.37,2013-10-20 06:35:00,
2013-10-20 02:40:00,44.2,40.0,29.77,SW,225,0.9,6.0,85,0.00,SCT,,0.00,0.0,WeatherDisplay:10.37,2013-10-20 06:40:00,
2013-10-20 02:45:00,44.2,40.0,29.77,WSW,238,1.7,11.5,85,0.00,SCT,,0.00,0.0,WeatherDisplay:10.37,2013-10-20 06:45:00,
2013-10-20 02:50:00,44.2,40.0,29.77,SW,217,0.0,10.4,85,0.00,SCT,,0.00,0.0,WeatherDisplay:10.37,2013-10-20 06:50:00,
2013-10-20 02:55:00,44.1,39.6,29.77,SSW,212,3.4,14.0,84,0.00,SCT,,0.00,0.0,WeatherDisplay:10.37,2013-10-20 06:55:00,
2013-10-20 03:00:00,44.1,39.6,29.77,SW,233,2.7,12.0,84,0.00,SCT,,0.00,0.0,WeatherDisplay:10.37,2013-10-20 07:00:00,
2013-10-20 03:05:00,44.1,39.6,29.77,SW,226,3.0,9.2,84,0.00,CLR,,0.00,0.0,WeatherDisplay:10.37,2013-10-20 07:05:00,
2013-10-20 03:10:00,43.9,39.4,29.77,WSW,250,2.8,10.0,84,0.00,CLR,,0.00,0.0,WeatherDisplay:10.37,2013-10-20 07:10:00,
2013-10-20 03:15:00,43.9,39.1,29.77,SSW,209,6.3,13.0,83,0.00,CLR,,0.00,0.0,WeatherDisplay:10.37,2013-10-20 07:15:00,
2013-10-20 03:20:00,43.9,39.1,29.77,WSW,255,2.5,7.0,83,0.00,CLR,,0.00,0.0,WeatherDisplay:10.37,2013-10-20 07:20:00,
2013-10-20 03:25:00,43.8,38.7,29.78,East,90,2.7,9.2,82,0.00,CLR,,0.00,0.0,WeatherDisplay:10.37,2013-10-20 07:25:00,
2013-10-20 03:30:00,43.8,38.7,29.78,West,268,1.8,7.0,82,0.00,CLR,,0.00,0.0,WeatherDisplay:10.37,2013-10-20 07:30:00,
2013-10-20 03:35:00,43.8,38.3,29.78,SW,234,2.3,10.4,81,0.00,CLR,,0.00,0.0,WeatherDisplay:10.37,2013-10-20 07:35:00,
2013-10-20 03:40:00,43.6,38.5,29.78,WSW,239,5.9,12.0,82,0.00,CLR,,0.00,0.0,WeatherDisplay:10.37,2013-10-20 07:40:00,
2013-10-20 03:45:00,43.6,38.2,29.78,WSW,243,3.0,10.4,81,0.00,CLR,,0.00,0.0,WeatherDisplay:10.37,2013-10-20 07:45:00,
2013-10-20 03:50:00,43.6,38.2,29.78,SSW,203,2.8,11.5,81,0.00,CLR,,0.00,0.0,WeatherDisplay:10.37,2013-10-20 07:50:00,
2013-10-20 03:55:00,43.6,37.8,29.78,SW,229,5.0,12.0,80,0.00,CLR,,0.00,0.0,WeatherDisplay:10.37,2013-10-20 07:55:00,
2013-10-20 04:00:00,43.5,37.7,29.78,SSW,207,6.1,11.5,80,0.00,CLR,,0.00,0.0,WeatherDisplay:10.37,2013-10-20 08:00:00,
2013-10-20 04:05:00,43.5,37.7,29.78,West,266,2.7,9.2,80,0.00,CLR,,0.00,0.0,WeatherDisplay:10.37,2013-10-20 08:05:00,
2013-10-20 04:10:00,43.3,37.5,29.79,SW,228,0.4,4.6,80,0.00,CLR,,0.00,0.0,WeatherDisplay:10.37,2013-10-20 08:10:00,
2013-10-20 04:15:00,43.3,37.2,29.79,SW,218,1.6,11.0,79,0.00,CLR,,0.00,0.0,WeatherDisplay:10.37,2013-10-20 08:15:00,
2013-10-20 04:20:00,43.3,37.2,29.79,WSW,252,2.6,6.0,79,0.00,CLR,,0.00,0.0,WeatherDisplay:10.37,2013-10-20 08:20:00,
2013-10-20 04:25:00,43.3,37.5,29.79,SW,214,2.3,11.5,80,0.00,CLR,,0.00,0.0,WeatherDisplay:10.37,2013-10-20 08:25:00,
2013-10-20 04:30:00,43.2,37.1,29.79,South,177,4.8,11.5,79,0.00,CLR,,0.00,0.0,WeatherDisplay:10.37,2013-10-20 08:30:00,
2013-10-20 04:35:00,43.3,37.2,29.79,SSE,163,0.0,11.5,79,0.00,CLR,,0.00,0.0,WeatherDisplay:10.37,2013-10-20 08:35:00,
2013-10-20 04:40:00,43.3,37.5,29.79,SSE,150,1.3,7.0,80,0.00,CLR,,0.00,0.0,WeatherDisplay:10.37,2013-10-20 08:40:00,
2013-10-20 04:45:00,43.2,37.1,29.79,SW,218,0.8,11.5,79,0.00,CLR,,0.00,0.0,WeatherDisplay:10.37,2013-10-20 08:45:00,
2013-10-20 04:50:00,43.3,37.2,29.79,SSE,163,1.4,7.0,79,0.00,CLR,,0.00,0.0,WeatherDisplay:10.37,2013-10-20 08:50:00,
2013-10-20 04:55:00,43.2,37.4,29.79,SW,236,0.1,5.8,80,0.00,CLR,,0.00,0.0,WeatherDisplay:10.37,2013-10-20 08:55:00,
2013-10-20 05:00:00,43.2,37.1,29.79,WSW,251,1.2,4.6,79,0.00,CLR,,0.00,0.0,WeatherDisplay:10.37,2013-10-20 09:00:00,
2013-10-20 05:05:00,43.1,37.0,29.79,South,184,0.0,3.5,79,0.00,CLR,,0.00,0.0,WeatherDisplay:10.37,2013-10-20 09:05:00,
2013-10-20 05:10:00,43.1,37.3,29.79,WSW,258,0.7,11.5,80,0.00,CLR,,0.00,0.0,WeatherDisplay:10.37,2013-10-20 09:10:00,
2013-10-20 05:15:00,42.9,37.2,29.79,WSW,237,0.4,3.5,80,0.00,CLR,,0.00,0.0,WeatherDisplay:10.37,2013-10-20 09:15:00,
2013-10-20 05:20:00,42.9,36.8,29.79,SW,217,0.8,5.0,79,0.00,CLR,,0.00,0.0,WeatherDisplay:10.37,2013-10-20 09:20:00,
2013-10-20 05:25:00,42.8,37.1,29.79,South,178,0.9,5.0,80,0.00,CLR,,0.00,0.0,WeatherDisplay:10.37,2013-10-20 09:25:00,
2013-10-20 05:30:00,42.8,37.1,29.80,SSW,209,0.4,3.5,80,0.00,CLR,,0.00,0.0,WeatherDisplay:10.37,2013-10-20 09:30:00,
2013-10-20 05:35:00,42.8,37.1,29.80,SW,226,1.6,6.0,80,0.00,CLR,,0.00,0.0,WeatherDisplay:10.37,2013-10-20 09:35:00,
2013-10-20 05:40:00,42.8,37.1,29.81,SW,222,1.9,6.0,80,0.00,CLR,,0.00,0.0,WeatherDisplay:10.37,2013-10-20 09:40:00,
2013-10-20 05:45:00,42.6,36.9,29.81,SSW,195,0.7,4.0,80,0.00,CLR,,0.00,0.0,WeatherDisplay:10.37,2013-10-20 09:45:00,
2013-10-20 05:50:00,42.6,36.9,29.81,WNW,303,1.3,6.0,80,0.00,CLR,,0.00,0.0,WeatherDisplay:10.37,2013-10-20 09:50:00,
2013-10-20 05:55:00,42.6,37.2,29.82,SW,222,1.6,6.0,81,0.00,CLR,,0.00,0.0,WeatherDisplay:10.37,2013-10-20 09:55:00,
2013-10-20 06:00:00,42.6,37.2,29.82,WSW,241,1.9,8.0,81,0.00,CLR,,0.00,0.0,WeatherDisplay:10.37,2013-10-20 10:00:00,
2013-10-20 06:05:00,42.6,37.5,29.82,SW,225,0.2,3.0,82,0.00,CLR,,0.00,0.0,WeatherDisplay:10.37,2013-10-20 10:05:00,
2013-10-20 06:10:00,42.8,37.7,29.82,South,177,0.9,5.0,82,0.00,CLR,,0.00,0.0,WeatherDisplay:10.37,2013-10-20 10:10:00,
2013-10-20 06:15:00,42.9,37.8,29.82,WSW,258,2.5,9.2,82,0.00,CLR,,0.00,0.0,WeatherDisplay:10.37,2013-10-20 10:15:00,
2013-10-20 06:20:00,43.1,37.7,29.82,SSW,210,1.1,5.0,81,0.00,CLR,,0.00,0.0,WeatherDisplay:10.37,2013-10-20 10:20:00,
2013-10-20 06:25:00,43.2,37.8,29.82,WSW,239,4.2,9.0,81,0.00,CLR,,0.00,0.0,WeatherDisplay:10.37,2013-10-20 10:25:00,
2013-10-20 06:30:00,43.2,37.8,29.82,SW,228,0.1,3.5,81,0.00,CLR,,0.00,0.0,WeatherDisplay:10.37,2013-10-20 10:30:00,
2013-10-20 06:35:00,43.2,37.8,29.82,SSW,201,1.0,4.0,81,0.00,CLR,,0.00,0.0,WeatherDisplay:10.37,2013-10-20 10:35:00,
2013-10-20 06:40:00,43.1,37.7,29.82,WSW,253,0.0,1.2,81,0.00,CLR,,0.00,0.0,WeatherDisplay:10.37,2013-10-20 10:40:00,
2013-10-20 06:45:00,42.9,37.5,29.82,WSW,239,0.2,5.8,81,0.00,CLR,,0.00,0.0,WeatherDisplay:10.37,2013-10-20 10:45:00,
2013-10-20 06:50:00,42.9,37.8,29.82,SW,215,1.5,6.0,82,0.00,CLR,,0.00,0.0,WeatherDisplay:10.37,2013-10-20 10:50:00,
2013-10-20 06:55:00,42.8,37.7,29.83,SSW,201,1.7,6.0,82,0.00,CLR,,0.00,0.0,WeatherDisplay:10.37,2013-10-20 10:55:00,
2013-10-20 07:00:00,42.6,37.5,29.83,WSW,256,0.1,1.0,82,0.00,CLR,,0.00,0.0,WeatherDisplay:10.37,2013-10-20 11:00:00,
2013-10-20 07:05:00,42.5,37.4,29.83,WNW,286,1.3,6.0,82,0.00,FEW,,0.00,0.0,WeatherDisplay:10.37,2013-10-20 11:05:00,
2013-10-20 07:10:00,42.5,37.4,29.84,SW,234,0.0,6.9,82,0.00,FEW,,0.00,0.0,WeatherDisplay:10.37,2013-10-20 11:10:00,
2013-10-20 07:15:00,42.3,37.2,29.84,SW,225,0.0,0.0,82,0.00,FEW,,0.00,0.0,WeatherDisplay:10.37,2013-10-20 11:15:00,
2013-10-20 07:20:00,42.2,37.4,29.84,South,180,0.0,0.0,83,0.00,FEW,,0.00,0.0,WeatherDisplay:10.37,2013-10-20 11:20:00,
2013-10-20 07:25:00,42.1,37.3,29.84,SSW,209,0.7,5.0,83,0.00,FEW,,0.00,5.0,WeatherDisplay:10.37,2013-10-20 11:25:00,
2013-10-20 07:30:00,41.9,37.4,29.84,SW,234,0.0,0.0,84,0.00,FEW,,0.00,9.0,WeatherDisplay:10.37,2013-10-20 11:30:00,
2013-10-20 07:35:00,41.8,37.3,29.84,SW,218,0.0,6.9,84,0.00,FEW,,0.00,12.0,WeatherDisplay:10.37,2013-10-20 11:35:00,
2013-10-20 07:40:00,41.8,37.0,29.85,SW,234,0.5,5.0,83,0.00,FEW,,0.00,16.0,WeatherDisplay:10.37,2013-10-20 11:40:00,
2013-10-20 07:45:00,41.8,37.0,29.85,SSW,203,0.5,3.5,83,0.00,FEW,,0.00,18.0,WeatherDisplay:10.37,2013-10-20 11:45:00,
2013-10-20 07:50:00,41.9,37.4,29.85,WSW,241,0.0,0.0,84,0.00,FEW,,0.00,21.0,WeatherDisplay:10.37,2013-10-20 11:50:00,
2013-10-20 07:55:00,41.9,37.4,29.86,WSW,258,0.0,0.0,84,0.00,FEW,,0.00,26.0,WeatherDisplay:10.37,2013-10-20 11:55:00,
2013-10-20 08:00:00,42.1,37.3,29.86,SW,219,0.0,0.0,83,0.00,FEW,,0.00,30.0,WeatherDisplay:10.37,2013-10-20 12:00:00,
2013-10-20 08:05:00,42.3,37.5,29.86,WSW,244,0.0,1.2,83,0.00,CLR,,0.00,35.0,WeatherDisplay:10.37,2013-10-20 12:05:00,
2013-10-20 08:10:00,42.8,38.0,29.86,WSW,257,0.3,3.5,83,0.00,CLR,,0.00,60.0,WeatherDisplay:10.37,2013-10-20 12:10:00,
2013-10-20 08:15:00,43.3,38.2,29.86,SW,234,0.0,0.0,82,0.00,CLR,,0.00,70.0,WeatherDisplay:10.37,2013-10-20 12:15:00,
2013-10-20 08:20:00,44.2,38.7,29.86,SW,232,0.0,1.0,81,0.00,CLR,,0.00,84.0,WeatherDisplay:10.37,2013-10-20 12:20:00,
2013-10-20 08:25:00,44.8,39.0,29.87,SW,220,0.0,0.0,80,0.00,CLR,,0.00,97.0,WeatherDisplay:10.37,2013-10-20 12:25:00,
2013-10-20 08:30:00,45.7,39.2,29.87,SW,221,0.0,0.0,78,0.00,CLR,,0.00,118.0,WeatherDisplay:10.37,2013-10-20 12:30:00,
2013-10-20 08:35:00,46.1,38.6,29.87,West,276,0.0,1.0,75,0.00,CLR,,0.00,132.0,WeatherDisplay:10.37,2013-10-20 12:35:00,
2013-10-20 08:40:00,46.8,38.9,29.87,West,274,0.0,0.0,74,0.00,CLR,,0.00,149.0,WeatherDisplay:10.37,2013-10-20 12:40:00,
2013-10-20 08:45:00,47.4,39.2,29.87,SW,224,0.0,0.0,73,0.00,CLR,,0.00,165.0,WeatherDisplay:10.37,2013-10-20 12:45:00,
2013-10-20 08:50:00,48.2,39.9,29.87,SE,142,0.0,1.2,73,0.00,CLR,,0.00,188.0,WeatherDisplay:10.37,2013-10-20 12:50:00,
2013-10-20 08:55:00,48.3,39.0,29.88,South,171,0.0,0.0,70,0.00,CLR,,0.00,206.0,WeatherDisplay:10.37,2013-10-20 12:55:00,
2013-10-20 09:00:00,48.9,39.2,29.88,SSW,200,3.4,7.0,69,0.00,CLR,,0.00,221.0,WeatherDisplay:10.37,2013-10-20 13:00:00,
2013-10-20 09:05:00,49.4,39.7,29.88,SSW,207,0.0,0.0,69,0.00,BKN,,0.00,237.0,WeatherDisplay:10.37,2013-10-20 13:05:00,
2013-10-20 09:10:00,49.8,39.7,29.88,West,272,0.0,0.0,68,0.00,BKN,,0.00,250.0,WeatherDisplay:10.37,2013-10-20 13:10:00,
2013-10-20 09:15:00,50.1,39.9,29.88,West,259,0.0,0.0,68,0.00,BKN,,0.00,264.0,WeatherDisplay:10.37,2013-10-20 13:15:00,
2013-10-20 09:20:00,50.5,39.9,29.88,WNW,282,0.0,1.2,67,0.00,BKN,,0.00,276.0,WeatherDisplay:10.37,2013-10-20 13:20:00,
2013-10-20 09:25:00,51.0,40.4,29.88,WSW,237,1.8,7.0,67,0.00,BKN,,0.00,287.0,WeatherDisplay:10.37,2013-10-20 13:25:00,
2013-10-20 09:30:00,51.1,40.1,29.88,SW,225,0.0,0.0,66,0.00,BKN,,0.00,306.0,WeatherDisplay:10.37,2013-10-20 13:30:00,
2013-10-20 09:35:00,51.3,40.3,29.88,WSW,255,0.0,1.2,66,0.00,BKN,,0.00,318.0,WeatherDisplay:10.37,2013-10-20 13:35:00,
2013-10-20 09:40:00,51.3,39.1,29.87,SSW,194,1.6,6.0,63,0.00,BKN,,0.00,336.0,WeatherDisplay:10.37,2013-10-20 13:40:00,
2013-10-20 09:45:00,51.1,38.9,29.87,SW,222,4.5,14.0,63,0.00,BKN,,0.00,345.0,WeatherDisplay:10.37,2013-10-20 13:45:00,
2013-10-20 09:50:00,51.4,39.6,29.87,West,264,3.1,13.8,64,0.00,BKN,,0.00,366.0,WeatherDisplay:10.37,2013-10-20 13:50:00,
2013-10-20 09:55:00,51.9,40.5,29.88,West,281,3.2,11.0,65,0.00,BKN,,0.00,380.0,WeatherDisplay:10.37,2013-10-20 13:55:00,
2013-10-20 10:00:00,52.2,40.0,29.88,WSW,251,1.4,6.9,63,0.00,BKN,,0.00,397.0,WeatherDisplay:10.37,2013-10-20 14:00:00,
2013-10-20 10:05:00,52.3,39.2,29.88,South,187,0.9,6.0,61,0.00,CLR,,0.00,420.0,WeatherDisplay:10.37,2013-10-20 14:05:00,
2013-10-20 10:10:00,52.9,40.2,29.88,West,268,8.0,12.0,62,0.00,CLR,,0.00,425.0,WeatherDisplay:10.37,2013-10-20 14:10:00,
2013-10-20 10:15:00,53.5,39.5,29.88,South,180,0.0,1.2,59,0.00,CLR,,0.00,457.0,WeatherDisplay:10.37,2013-10-20 14:15:00,
2013-10-20 10:20:00,53.5,38.6,29.88,West,259,3.4,14.0,57,0.00,CLR,,0.00,452.0,WeatherDisplay:10.37,2013-10-20 14:20:00,
2013-10-20 10:25:00,53.6,40.5,29.89,SW,226,10.3,17.3,61,0.00,CLR,,0.00,473.0,WeatherDisplay:10.37,2013-10-20 14:25:00,
2013-10-20 10:30:00,53.9,39.9,29.89,SW,217,4.2,12.0,59,0.00,CLR,,0.00,540.0,WeatherDisplay:10.37,2013-10-20 14:30:00,
2013-10-20 10:35:00,53.6,39.6,29.89,South,173,3.2,16.1,59,0.00,CLR,,0.00,582.0,WeatherDisplay:10.37,2013-10-20 14:35:00,
2013-10-20 10:40:00,53.8,39.8,29.90,SSW,199,1.6,8.1,59,0.00,CLR,,0.00,594.0,WeatherDisplay:10.37,2013-10-20 14:40:00,
2013-10-20 10:45:00,53.5,38.2,29.90,SW,233,2.7,15.0,56,0.00,CLR,,0.00,160.0,WeatherDisplay:10.37,2013-10-20 14:45:00,
2013-10-20 10:50:00,53.5,40.8,29.90,SSW,203,2.6,7.0,62,0.00,CLR,,0.00,615.0,WeatherDisplay:10.37,2013-10-20 14:50:00,
2013-10-20 10:55:00,53.8,39.4,29.90,West,272,2.9,11.5,58,0.00,CLR,,0.00,659.0,WeatherDisplay:10.37,2013-10-20 14:55:00,
2013-10-20 11:00:00,54.2,40.2,29.90,WNW,289,2.3,10.4,59,0.00,CLR,,0.00,675.0,WeatherDisplay:10.37,2013-10-20 15:00:00,
2013-10-20 11:05:00,54.5,40.0,29.90,SE,140,0.2,5.8,58,0.00,BKN,,0.00,271.0,WeatherDisplay:10.37,2013-10-20 15:05:00,
2013-10-20 11:10:00,53.9,38.6,29.90,SW,219,4.5,16.1,56,0.00,BKN,,0.00,167.0,WeatherDisplay:10.37,2013-10-20 15:10:00,
2013-10-20 11:15:00,53.9,39.5,29.90,WSW,253,5.0,10.0,58,0.00,BKN,,0.00,684.0,WeatherDisplay:10.37,2013-10-20 15:15:00,
2013-10-20 11:20:00,54.4,38.6,29.90,SSW,207,6.0,11.5,55,0.00,BKN,,0.00,707.0,WeatherDisplay:10.37,2013-10-20 15:20:00,
2013-10-20 11:25:00,53.9,38.6,29.91,WSW,253,3.5,12.0,56,0.00,BKN,,0.00,155.0,WeatherDisplay:10.37,2013-10-20 15:25:00,
2013-10-20 11:30:00,53.3,38.4,29.91,SW,223,2.9,10.4,57,0.00,BKN,,0.00,315.0,WeatherDisplay:10.37,2013-10-20 15:30:00,
2013-10-20 11:35:00,53.5,39.5,29.91,West,280,9.5,15.0,59,0.00,BKN,,0.00,784.0,WeatherDisplay:10.37,2013-10-20 15:35:00,
2013-10-20 11:40:00,54.2,39.3,29.90,WNW,291,9.1,18.0,57,0.00,BKN,,0.00,281.0,WeatherDisplay:10.37,2013-10-20 15:40:00,
2013-10-20 11:45:00,54.4,38.6,29.90,SSW,212,4.6,13.0,55,0.00,BKN,,0.00,227.0,WeatherDisplay:10.37,2013-10-20 15:45:00,
2013-10-20 11:50:00,54.1,37.8,29.90,West,260,8.1,13.0,54,0.00,BKN,,0.00,243.0,WeatherDisplay:10.37,2013-10-20 15:50:00,
2013-10-20 11:55:00,54.2,39.7,29.91,WSW,255,3.8,12.0,58,0.00,BKN,,0.00,243.0,WeatherDisplay:10.37,2013-10-20 15:55:00,
2013-10-20 12:00:00,55.0,37.7,29.91,WSW,241,3.8,11.5,52,0.00,BKN,,0.00,805.0,WeatherDisplay:10.37,2013-10-20 16:00:00,
2013-10-20 12:05:00,55.4,38.1,29.91,WNW,293,0.6,6.0,52,0.00,BKN,,0.00,529.0,WeatherDisplay:10.37,2013-10-20 16:05:00,
2013-10-20 12:10:00,55.3,38.4,29.91,SW,236,0.0,4.6,53,0.00,BKN,,0.00,271.0,WeatherDisplay:10.37,2013-10-20 16:10:00,
2013-10-20 12:15:00,55.0,39.1,29.91,West,268,4.4,11.0,55,0.00,BKN,,0.00,121.0,WeatherDisplay:10.37,2013-10-20 16:15:00,
2013-10-20 12:20:00,54.5,37.7,29.91,WSW,248,2.8,13.0,53,0.00,BKN,,0.00,130.0,WeatherDisplay:10.37,2013-10-20 16:20:00,
2013-10-20 12:25:00,54.8,38.5,29.91,West,260,1.0,5.0,54,0.00,BKN,,0.00,765.0,WeatherDisplay:10.37,2013-10-20 16:25:00,
2013-10-20 12:30:00,55.6,38.7,29.91,WNW,282,2.8,11.0,53,0.00,BKN,,0.00,800.0,WeatherDisplay:10.37,2013-10-20 16:30:00,
2013-10-20 12:35:00,56.6,40.1,29.91,WNW,283,7.5,15.0,54,0.00,BKN,,0.00,775.0,WeatherDisplay:10.37,2013-10-20 16:35:00,
2013-10-20 12:36:00,56.7,39.3,29.91,SSW,193,4.6,12.7,52,0.00,BKN,,0.00,686.0,WeatherDisplay:10.37,2013-10-20 16:36:00,
2013-10-20 12:41:00,56.5,38.1,29.91,WSW,257,5.2,11.5,50,0.00,BKN,,0.00,204.0,WeatherDisplay:10.37,2013-10-20 16:41:00,
2013-10-20 12:46:00,56.2,40.7,29.91,West,276,2.4,6.0,56,0.00,BKN,,0.00,777.0,WeatherDisplay:10.37,2013-10-20 16:46:00,
2013-10-20 12:51:00,56.3,38.4,29.91,WSW,250,6.5,14.0,51,0.00,BKN,,0.00,798.0,WeatherDisplay:10.37,2013-10-20 16:51:00,
2013-10-20 12:56:00,56.9,40.4,29.91,ESE,115,11.2,19.6,54,0.00,BKN,,0.00,747.0,WeatherDisplay:10.37,2013-10-20 16:56:00,
2013-10-20 13:01:00,57.0,38.5,29.91,WSW,247,0.3,13.8,50,0.00,OVC,,0.00,752.0,WeatherDisplay:10.37,2013-10-20 17:01:00,
2013-10-20 13:07:00,57.0,38.5,29.91,SW,214,6.0,16.0,50,0.00,OVC,,0.00,679.0,WeatherDisplay:10.37,2013-10-20 17:07:00,
2013-10-20 13:12:00,57.0,37.5,29.91,South,169,5.8,17.3,48,0.00,OVC,,0.00,677.0,WeatherDisplay:10.37,2013-10-20 17:12:00,
2013-10-20 13:17:00,56.9,37.4,29.91,SSW,210,7.7,15.0,48,0.00,OVC,,0.00,714.0,WeatherDisplay:10.37,2013-10-20 17:17:00,
2013-10-20 13:22:00,56.2,37.3,29.91,SSE,165,5.8,11.5,49,0.00,OVC,,0.00,197.0,WeatherDisplay:10.37,2013-10-20 17:22:00,
2013-10-20 13:27:00,55.4,37.1,29.91,WSW,255,3.5,14.0,50,0.00,OVC,,0.00,163.0,WeatherDisplay:10.37,2013-10-20 17:27:00,
2013-10-20 13:32:00,55.7,37.8,29.91,WSW,251,2.0,7.0,51,0.00,OVC,,0.00,694.0,WeatherDisplay:10.37,2013-10-20 17:32:00,
2013-10-20 13:37:00,56.3,36.3,29.91,West,273,6.9,16.1,47,0.00,OVC,,0.00,195.0,WeatherDisplay:10.37,2013-10-20 17:37:00,
2013-10-20 13:42:00,56.0,36.6,29.91,WSW,245,6.7,13.0,48,0.00,OVC,,0.00,193.0,WeatherDisplay:10.37,2013-10-20 17:42:00,
2013-10-20 13:47:00,55.3,36.5,29.91,SW,235,0.7,6.0,49,0.00,OVC,,0.00,148.0,WeatherDisplay:10.37,2013-10-20 17:47:00,
2013-10-20 13:52:00,54.8,36.0,29.91,WSW,253,6.5,16.0,49,0.00,OVC,,0.00,174.0,WeatherDisplay:10.37,2013-10-20 17:52:00,
2013-10-20 13:57:00,54.4,36.6,29.92,WNW,289,4.5,14.0,51,0.00,OVC,,0.00,216.0,WeatherDisplay:10.37,2013-10-20 17:57:00,
2013-10-20 14:02:00,54.4,36.6,29.92,WNW,296,1.9,12.7,51,0.00,OVC,,0.00,128.0,WeatherDisplay:10.37,2013-10-20 18:02:00,
2013-10-20 14:07:00,54.4,37.1,29.92,NW,310,1.2,12.7,52,0.00,OVC,,0.00,90.0,WeatherDisplay:10.37,2013-10-20 18:07:00,
2013-10-20 14:12:00,54.1,36.9,29.92,NW,315,4.8,15.0,52,0.00,OVC,,0.00,105.0,WeatherDisplay:10.37,2013-10-20 18:12:00,
2013-10-20 14:17:00,53.3,41.0,29.92,NNW,341,8.1,13.0,63,0.00,OVC,,0.00,155.0,WeatherDisplay:10.37,2013-10-20 18:17:00,
2013-10-20 14:22:00,52.3,40.9,29.92,NNW,327,9.0,13.0,65,0.00,OVC,,0.00,107.0,WeatherDisplay:10.37,2013-10-20 18:22:00,
2013-10-20 14:27:00,51.1,40.9,29.93,NNW,334,6.8,11.5,68,0.00,OVC,,0.00,91.0,WeatherDisplay:10.37,2013-10-20 18:27:00,
2013-10-20 14:32:00,50.5,40.7,29.93,NNW,348,4.8,8.0,69,0.00,OVC,,0.00,169.0,WeatherDisplay:10.37,2013-10-20 18:32:00,
2013-10-20 14:37:00,50.5,40.7,29.93,NNW,335,1.8,4.6,69,0.00,OVC,,0.00,155.0,WeatherDisplay:10.37,2013-10-20 18:37:00,
2013-10-20 14:42:00,50.5,40.7,29.93,NNW,343,3.6,9.2,69,0.00,OVC,,0.00,155.0,WeatherDisplay:10.37,2013-10-20 18:42:00,
2013-10-20 14:47:00,50.8,41.4,29.93,NNW,335,4.3,7.0,70,0.00,OVC,,0.00,682.0,WeatherDisplay:10.37,2013-10-20 18:47:00,
2013-10-20 14:52:00,51.6,42.1,29.93,NNW,343,4.0,5.0,70,0.00,OVC,,0.00,497.0,WeatherDisplay:10.37,2013-10-20 18:52:00,
2013-10-20 14:57:00,52.5,41.9,29.93,NNW,339,4.2,6.0,67,0.00,OVC,,0.00,608.0,WeatherDisplay:10.37,2013-10-20 18:57:00,
2013-10-20 15:02:00,53.2,42.9,29.93,NW,325,0.8,4.0,68,0.00,OVC,,0.00,206.0,WeatherDisplay:10.37,2013-10-20 19:02:00,
2013-10-20 15:07:00,53.9,41.6,29.93,NW,304,2.5,6.0,63,0.00,OVC,,0.00,153.0,WeatherDisplay:10.37,2013-10-20 19:07:00,
2013-10-20 15:12:00,53.9,41.6,29.93,NW,308,2.7,4.6,63,0.00,OVC,,0.00,181.0,WeatherDisplay:10.37,2013-10-20 19:12:00,
2013-10-20 15:17:00,53.9,41.6,29.93,NW,324,2.6,6.0,63,0.00,OVC,,0.00,455.0,WeatherDisplay:10.37,2013-10-20 19:17:00,
2013-10-20 15:22:00,53.9,41.2,29.93,NW,305,0.8,4.0,62,0.00,OVC,,0.00,186.0,WeatherDisplay:10.37,2013-10-20 19:22:00,
2013-10-20 15:27:00,53.5,40.8,29.93,WNW,303,0.0,3.5,62,0.00,OVC,,0.00,128.0,WeatherDisplay:10.37,2013-10-20 19:27:00,
2013-10-20 15:32:00,53.3,40.2,29.93,WNW,303,0.2,1.0,61,0.00,OVC,,0.00,120.0,WeatherDisplay:10.37,2013-10-20 19:32:00,
2013-10-20 15:37:00,53.2,41.3,29.93,NW,304,0.0,3.5,64,0.00,OVC,,0.00,123.0,WeatherDisplay:10.37,2013-10-20 19:37:00,
2013-10-20 15:42:00,53.1,40.4,29.93,NW,304,0.1,1.0,62,0.00,OVC,,0.00,178.0,WeatherDisplay:10.37,2013-10-20 19:42:00,
2013-10-20 15:47:00,53.3,40.6,29.93,NW,304,0.0,1.2,62,0.00,OVC,,0.00,541.0,WeatherDisplay:10.37,2013-10-20 19:47:00,
2013-10-20 15:52:00,53.6,41.3,29.93,NW,321,0.0,1.2,63,0.00,OVC,,0.00,142.0,WeatherDisplay:10.37,2013-10-20 19:52:00,
2013-10-20 15:57:00,53.5,40.8,29.93,NW,321,0.0,1.2,62,0.00,OVC,,0.00,86.0,WeatherDisplay:10.37,2013-10-20 19:57:00,
2013-10-20 16:02:00,53.3,41.0,29.93,NW,307,0.1,1.2,63,0.00,OVC,,0.00,77.0,WeatherDisplay:10.37,2013-10-20 20:02:00,
2013-10-20 16:07:00,53.2,39.2,29.93,SSW,201,1.7,8.1,59,0.00,OVC,,0.00,54.0,WeatherDisplay:10.37,2013-10-20 20:07:00,
2013-10-20 16:12:00,53.3,38.4,29.95,SW,220,5.1,10.0,57,0.00,OVC,,0.00,113.0,WeatherDisplay:10.37,2013-10-20 20:12:00,
2013-10-20 16:17:00,53.3,38.0,29.95,SW,222,0.0,10.4,56,0.00,OVC,,0.00,104.0,WeatherDisplay:10.37,2013-10-20 20:17:00,
2013-10-20 16:22:00,53.5,39.5,29.95,South,183,1.8,10.4,59,0.00,OVC,,0.00,95.0,WeatherDisplay:10.37,2013-10-20 20:22:00,
2013-10-20 16:27:00,53.5,39.5,29.95,SW,216,1.7,6.0,59,0.00,OVC,,0.00,109.0,WeatherDisplay:10.37,2013-10-20 20:27:00,
2013-10-20 16:32:00,53.5,39.5,29.95,West,278,2.3,10.4,59,0.00,OVC,,0.00,174.0,WeatherDisplay:10.37,2013-10-20 20:32:00,
2013-10-20 16:37:00,53.6,38.7,29.95,SW,221,1.7,6.9,57,0.00,OVC,,0.00,95.0,WeatherDisplay:10.37,2013-10-20 20:37:00,
2013-10-20 16:42:00,53.6,39.2,29.95,SW,236,0.4,6.9,58,0.00,OVC,,0.00,109.0,WeatherDisplay:10.37,2013-10-20 20:42:00,
2013-10-20 16:47:00,53.5,38.2,29.95,SW,214,2.8,9.2,56,0.00,OVC,,0.00,70.0,WeatherDisplay:10.37,2013-10-20 20:47:00,
2013-10-20 16:52:00,53.3,38.4,29.95,WSW,245,0.6,5.0,57,0.00,OVC,,0.00,77.0,WeatherDisplay:10.37,2013-10-20 20:52:00,
2013-10-20 16:57:00,53.2,38.4,29.95,WSW,241,4.1,11.0,57,0.00,OVC,,0.00,79.0,WeatherDisplay:10.37,2013-10-20 20:57:00,
2013-10-20 17:02:00,52.9,39.0,29.95,WSW,237,1.3,9.2,59,0.00,FEW,,0.00,65.0,WeatherDisplay:10.37,2013-10-20 21:02:00,
2013-10-20 17:07:00,52.9,38.5,29.95,SSW,194,0.1,1.2,58,0.00,FEW,,0.00,70.0,WeatherDisplay:10.37,2013-10-20 21:07:00,
2013-10-20 17:12:00,52.8,38.4,29.95,SW,220,1.6,7.0,58,0.00,FEW,,0.00,62.0,WeatherDisplay:10.37,2013-10-20 21:12:00,
2013-10-20 17:17:00,52.6,38.7,29.95,SW,225,1.7,4.0,59,0.00,FEW,,0.00,56.0,WeatherDisplay:10.37,2013-10-20 21:17:00,
2013-10-20 17:22:00,52.5,39.0,29.95,WSW,246,2.3,9.2,60,0.00,FEW,,0.00,44.0,WeatherDisplay:10.37,2013-10-20 21:22:00,
2013-10-20 17:27:00,52.3,39.2,29.96,SSW,199,0.5,4.6,61,0.00,FEW,,0.00,40.0,WeatherDisplay:10.37,2013-10-20 21:27:00,
2013-10-20 17:32:00,52.3,39.2,29.96,SW,229,2.1,6.0,61,0.00,FEW,,0.00,30.0,WeatherDisplay:10.37,2013-10-20 21:32:00,
2013-10-20 17:37:00,52.0,39.4,29.96,West,266,0.4,4.0,62,0.00,FEW,,0.00,32.0,WeatherDisplay:10.37,2013-10-20 21:37:00,
2013-10-20 17:42:00,51.9,39.3,29.97,WSW,245,1.3,6.0,62,0.00,FEW,,0.00,26.0,WeatherDisplay:10.37,2013-10-20 21:42:00,
2013-10-20 17:47:00,51.9,38.9,29.97,SW,220,0.5,4.0,61,0.00,FEW,,0.00,18.0,WeatherDisplay:10.37,2013-10-20 21:47:00,
2013-10-20 17:52:00,51.7,39.5,29.97,SW,222,0.0,3.5,63,0.00,FEW,,0.00,12.0,WeatherDisplay:10.37,2013-10-20 21:52:00,
2013-10-20 17:57:00,51.6,39.4,29.97,SW,226,0.0,1.2,63,0.00,FEW,,0.00,9.0,WeatherDisplay:10.37,2013-10-20 21:57:00,
2013-10-20 18:02:00,51.4,39.6,29.97,WSW,258,0.8,7.0,64,0.00,OVC,,0.00,5.0,WeatherDisplay:10.37,2013-10-20 22:02:00,
2013-10-20 18:07:00,51.3,39.1,29.97,WSW,255,0.0,0.0,63,0.00,OVC,,0.00,0.0,WeatherDisplay:10.37,2013-10-20 22:07:00,
2013-10-20 18:12:00,51.1,39.7,29.97,SW,221,0.0,0.0,65,0.00,OVC,,0.00,0.0,WeatherDisplay:10.37,2013-10-20 22:12:00,
2013-10-20 18:17:00,51.0,39.6,29.97,SW,229,0.0,0.0,65,0.00,OVC,,0.00,0.0,WeatherDisplay:10.37,2013-10-20 22:17:00,
2013-10-20 18:22:00,50.8,39.8,29.97,SW,229,0.0,0.0,66,0.00,OVC,,0.00,0.0,WeatherDisplay:10.37,2013-10-20 22:22:00,
2013-10-20 18:27:00,50.7,39.7,29.98,SSE,154,0.0,0.0,66,0.00,OVC,,0.00,0.0,WeatherDisplay:10.37,2013-10-20 22:27:00,
2013-10-20 18:33:00,50.5,39.9,29.98,South,173,0.0,0.0,67,0.00,OVC,,0.00,0.0,WeatherDisplay:10.37,2013-10-20 22:33:00,
2013-10-20 18:38:00,50.5,39.9,29.98,South,173,0.0,0.0,67,0.00,OVC,,0.00,0.0,WeatherDisplay:10.37,2013-10-20 22:38:00,
2013-10-20 18:43:00,50.4,40.2,29.98,SSW,208,0.0,0.0,68,0.00,OVC,,0.00,0.0,WeatherDisplay:10.37,2013-10-20 22:43:00,
2013-10-20 18:48:00,50.2,40.8,29.98,SSW,208,0.0,0.0,70,0.00,OVC,,0.00,0.0,WeatherDisplay:10.37,2013-10-20 22:48:00,
2013-10-20 18:53:00,50.1,40.7,29.98,SSW,208,0.0,0.0,70,0.00,OVC,,0.00,0.0,WeatherDisplay:10.37,2013-10-20 22:53:00,
2013-10-20 18:58:00,49.9,39.8,29.98,SSW,208,0.0,0.0,68,0.00,OVC,,0.00,0.0,WeatherDisplay:10.37,2013-10-20 22:58:00,
2013-10-20 19:03:00,49.9,40.5,29.98,SSW,206,0.0,0.0,70,0.00,BKN,,0.00,0.0,WeatherDisplay:10.37,2013-10-20 23:03:00,
2013-10-20 19:08:00,49.8,40.8,29.98,SSW,206,0.0,0.0,71,0.00,BKN,,0.00,0.0,WeatherDisplay:10.37,2013-10-20 23:08:00,
2013-10-20 19:13:00,49.8,41.8,29.99,SSW,206,0.0,0.0,74,0.00,BKN,,0.00,0.0,WeatherDisplay:10.37,2013-10-20 23:13:00,
2013-10-20 19:18:00,49.5,41.2,29.99,SSW,206,0.0,0.0,73,0.00,BKN,,0.00,0.0,WeatherDisplay:10.37,2013-10-20 23:18:00,
2013-10-20 19:23:00,49.5,40.5,29.99,SW,230,0.0,0.0,71,0.00,BKN,,0.00,0.0,WeatherDisplay:10.37,2013-10-20 23:23:00,
2013-10-20 19:28:00,49.5,40.8,29.99,WSW,238,0.1,1.2,72,0.00,BKN,,0.00,0.0,WeatherDisplay:10.37,2013-10-20 23:28:00,
2013-10-20 19:33:00,49.4,40.7,29.99,WSW,238,0.0,0.0,72,0.00,BKN,,0.00,0.0,WeatherDisplay:10.37,2013-10-20 23:33:00,
2013-10-20 19:38:00,49.4,40.7,29.99,SW,233,0.2,2.3,72,0.00,BKN,,0.00,0.0,WeatherDisplay:10.37,2013-10-20 23:38:00,
2013-10-20 19:43:00,49.2,40.6,30.00,SW,232,0.0,1.0,72,0.00,BKN,,0.00,0.0,WeatherDisplay:10.37,2013-10-20 23:43:00,
2013-10-20 19:48:00,49.4,40.7,30.00,SW,226,0.0,0.0,72,0.00,BKN,,0.00,0.0,WeatherDisplay:10.37,2013-10-20 23:48:00,
2013-10-20 19:53:00,49.4,40.0,30.00,SSE,154,0.2,2.0,70,0.00,BKN,,0.00,0.0,WeatherDisplay:10.37,2013-10-20 23:53:00,
2013-10-20 19:58:00,49.4,39.7,30.00,SSE,158,0.0,1.2,69,0.00,BKN,,0.00,0.0,WeatherDisplay:10.37,2013-10-20 23:58:00,
2013-10-20 20:03:00,49.5,40.1,30.00,SW,217,0.0,0.0,70,0.00,OVC,,0.00,0.0,WeatherDisplay:10.37,2013-10-21 00:03:00,
2013-10-20 20:08:00,49.6,40.2,30.00,SW,225,0.0,0.0,70,0.00,OVC,,0.00,0.0,WeatherDisplay:10.37,2013-10-21 00:08:00,
2013-10-20 20:13:00,49.6,40.6,30.00,SW,234,0.0,0.0,71,0.00,OVC,,0.00,0.0,WeatherDisplay:10.37,2013-10-21 00:13:00,
2013-10-20 20:18:00,49.6,40.6,30.00,West,260,0.0,0.0,71,0.00,OVC,,0.00,0.0,WeatherDisplay:10.37,2013-10-21 00:18:00,
2013-10-20 20:23:00,49.5,40.5,30.00,WSW,251,0.0,0.0,71,0.00,OVC,,0.00,0.0,WeatherDisplay:10.37,2013-10-21 00:23:00,
2013-10-20 20:28:00,49.5,40.5,30.00,WSW,251,0.0,0.0,71,0.00,OVC,,0.00,0.0,WeatherDisplay:10.37,2013-10-21 00:28:00,
2013-10-20 20:33:00,49.5,40.5,30.00,WSW,249,0.0,0.0,71,0.00,OVC,,0.00,0.0,WeatherDisplay:10.37,2013-10-21 00:33:00,
2013-10-20 20:38:00,49.5,40.8,30.00,SW,229,0.0,0.0,72,0.00,OVC,,0.00,0.0,WeatherDisplay:10.37,2013-10-21 00:38:00,
2013-10-20 20:43:00,49.5,40.5,30.00,SSW,213,0.0,0.0,71,0.00,OVC,,0.00,0.0,WeatherDisplay:10.37,2013-10-21 00:43:00,
2013-10-20 20:48:00,49.5,41.2,30.00,West,279,0.3,2.3,73,0.00,OVC,,0.00,0.0,WeatherDisplay:10.37,2013-10-21 00:48:00,
2013-10-20 20:53:00,49.5,40.5,30.00,SSW,199,1.8,7.0,71,0.00,OVC,,0.00,0.0,WeatherDisplay:10.37,2013-10-21 00:53:00,
2013-10-20 20:58:00,49.5,40.5,30.01,SW,236,1.9,5.0,71,0.00,OVC,,0.00,0.0,WeatherDisplay:10.37,2013-10-21 00:58:00,
2013-10-20 21:03:00,49.5,40.5,30.01,SW,222,0.7,4.0,71,0.00,OVC,,0.00,0.0,WeatherDisplay:10.37,2013-10-21 01:03:00,
2013-10-20 21:08:00,49.5,40.5,30.01,SW,223,0.0,0.0,71,0.00,OVC,,0.00,0.0,WeatherDisplay:10.37,2013-10-21 01:08:00,
2013-10-20 21:13:00,49.5,40.8,30.01,SSW,194,0.0,0.0,72,0.00,OVC,,0.00,0.0,WeatherDisplay:10.37,2013-10-21 01:13:00,
2013-10-20 21:18:00,49.5,40.8,30.01,SW,217,0.0,0.0,72,0.00,OVC,,0.00,0.0,WeatherDisplay:10.37,2013-10-21 01:18:00,
2013-10-20 21:23:00,49.4,40.7,30.01,SSW,201,0.0,0.0,72,0.00,OVC,,0.00,0.0,WeatherDisplay:10.37,2013-10-21 01:23:00,
2013-10-20 21:28:00,49.2,40.6,30.01,SW,224,0.0,0.0,72,0.00,OVC,,0.00,0.0,WeatherDisplay:10.37,2013-10-21 01:28:00,
2013-10-20 21:33:00,49.2,40.6,30.01,SW,219,0.2,4.6,72,0.00,OVC,,0.00,0.0,WeatherDisplay:10.37,2013-10-21 01:33:00,
2013-10-20 21:38:00,49.2,40.6,30.01,SW,227,0.0,0.0,72,0.00,OVC,,0.00,0.0,WeatherDisplay:10.37,2013-10-21 01:38:00,
2013-10-20 21:43:00,49.2,40.6,30.01,SW,234,0.0,0.0,72,0.00,OVC,,0.00,0.0,WeatherDisplay:10.37,2013-10-21 01:43:00,
2013-10-20 21:48:00,49.1,40.8,30.01,SSW,208,0.0,0.0,73,0.00,OVC,,0.00,0.0,WeatherDisplay:10.37,2013-10-21 01:48:00,
2013-10-20 21:53:00,49.1,40.8,30.01,SW,220,0.0,0.0,73,0.00,OVC,,0.00,0.0,WeatherDisplay:10.37,2013-10-21 01:53:00,
2013-10-20 21:58:00,49.1,40.5,30.01,SW,231,0.0,0.0,72,0.00,OVC,,0.00,0.0,WeatherDisplay:10.37,2013-10-21 01:58:00,
2013-10-20 22:03:00,48.9,40.6,30.01,SW,218,0.0,0.0,73,0.00,OVC,,0.00,0.0,WeatherDisplay:10.37,2013-10-21 02:03:00,
2013-10-20 22:08:00,48.8,40.5,30.01,SW,218,0.0,0.0,73,0.00,OVC,,0.00,0.0,WeatherDisplay:10.37,2013-10-21 02:08:00,
2013-10-20 22:13:00,48.8,41.2,30.01,SW,218,0.0,0.0,75,0.00,OVC,,0.00,0.0,WeatherDisplay:10.37,2013-10-21 02:13:00,
2013-10-20 22:18:00,48.5,41.3,30.01,SW,218,0.0,0.0,76,0.00,OVC,,0.00,0.0,WeatherDisplay:10.37,2013-10-21 02:18:00,
2013-10-20 22:23:00,48.3,41.4,30.01,SW,218,0.0,0.0,77,0.00,OVC,,0.00,0.0,WeatherDisplay:10.37,2013-10-21 02:23:00,
2013-10-20 22:28:00,48.0,41.8,30.01,SW,218,0.0,0.0,79,0.00,OVC,,0.00,0.0,WeatherDisplay:10.37,2013-10-21 02:28:00,
2013-10-20 22:33:00,47.7,41.8,30.01,SW,218,0.0,0.0,80,0.00,OVC,,0.00,0.0,WeatherDisplay:10.37,2013-10-21 02:33:00,
2013-10-20 22:38:00,47.4,41.2,30.01,SW,218,0.0,0.0,79,0.00,OVC,,0.00,0.0,WeatherDisplay:10.37,2013-10-21 02:38:00,
2013-10-20 22:43:00,47.1,41.2,30.01,SW,218,0.0,0.0,80,0.00,OVC,,0.00,0.0,WeatherDisplay:10.37,2013-10-21 02:43:00,
2013-10-20 22:48:00,47.0,41.5,30.01,SW,218,0.0,0.0,81,0.00,OVC,,0.00,0.0,WeatherDisplay:10.37,2013-10-21 02:48:00,
2013-10-20 22:53:00,46.7,41.2,30.01,SW,218,0.0,0.0,81,0.00,OVC,,0.00,0.0,WeatherDisplay:10.37,2013-10-21 02:53:00,
2013-10-20 22:58:00,46.5,41.0,30.01,SW,218,0.0,0.0,81,0.00,OVC,,0.00,0.0,WeatherDisplay:10.37,2013-10-21 02:58:00,
2013-10-20 23:03:00,46.4,41.5,30.01,SW,218,0.0,0.0,83,0.00,OVC,,0.00,0.0,WeatherDisplay:10.37,2013-10-21 03:03:00,
2013-10-20 23:08:00,46.2,41.6,30.01,SW,218,0.0,0.0,84,0.00,OVC,,0.00,0.0,WeatherDisplay:10.37,2013-10-21 03:08:00,
2013-10-20 23:13:00,46.1,41.8,30.01,SW,218,0.0,0.0,85,0.00,OVC,,0.00,0.0,WeatherDisplay:10.37,2013-10-21 03:13:00,
2013-10-20 23:18:00,46.0,42.0,30.01,SW,218,0.0,0.0,86,0.00,OVC,,0.00,0.0,WeatherDisplay:10.37,2013-10-21 03:18:00,
2013-10-20 23:23:00,45.8,41.9,30.01,SW,218,0.0,0.0,86,0.00,OVC,,0.00,0.0,WeatherDisplay:10.37,2013-10-21 03:23:00,
2013-10-20 23:28:00,45.7,41.8,30.01,SW,218,0.0,0.0,86,0.00,OVC,,0.00,0.0,WeatherDisplay:10.37,2013-10-21 03:28:00,
2013-10-20 23:33:00,45.7,42.1,30.01,SW,218,0.0,0.0,87,0.00,OVC,,0.00,0.0,WeatherDisplay:10.37,2013-10-21 03:33:00,
2013-10-20 23:38:00,45.5,41.9,30.01,SW,218,0.0,0.0,87,0.00,OVC,,0.00,0.0,WeatherDisplay:10.37,2013-10-21 03:38:00,
2013-10-20 23:43:00,45.5,41.9,30.01,SW,218,0.0,0.0,87,0.00,OVC,,0.00,0.0,WeatherDisplay:10.37,2013-10-21 03:43:00,
2013-10-20 23:48:00,45.4,41.8,30.01,SW,218,0.0,0.0,87,0.00,OVC,,0.00,0.0,WeatherDisplay:10.37,2013-10-21 03:48:00,
2013-10-20 23:53:00,45.4,41.8,30.01,SW,218,0.0,0.0,87,0.00,OVC,,0.00,0.0,WeatherDisplay:10.37,2013-10-21 03:53:00,
2013-10-20 23:58:00,45.5,41.9,30.01,SW,218,0.0,0.0,87,0.00,OVC,,0.00,0.0,WeatherDisplay:10.37,2013-10-21 03:58:00,